Time;durP1;ratioP1;P1;durP2;ratioP2;P2;SDS_P1;SDS_P2;PMS_P1;PMS_P2;Temp;Humidity;BMP_temperature;BMP_pressure;BME280_temperature;BME280_humidity;BME280_pressure;Samples;Min_cycle;Max_cycle;Signal;HPM_P1;HPM_P2
2020/12/31 00:00:42;;;;;;;22.83;14.18;;;4.00;99.90;;;;;;5028346;28;20677;-77
2020/12/31 00:03:08;;;;;;;17.73;13.70;;;3.90;99.90;;;;;;5028789;28;20034;-78
2020/12/31 00:05:33;;;;;;;18.92;14.65;;;3.90;99.90;;;;;;5043800;28;20033;-77
2020/12/31 00:07:59;;;;;;;19.13;13.93;;;3.90;99.90;;;;;;5027246;28;20028;-77
2020/12/31 00:10:24;;;;;;;18.98;14.23;;;3.90;99.90;;;;;;5026945;28;20040;-77
2020/12/31 00:12:50;;;;;;;16.98;13.30;;;3.90;99.90;;;;;;5029092;28;20029;-77
2020/12/31 00:15:15;;;;;;;19.05;14.10;;;3.90;99.90;;;;;;5037346;28;20025;-77
2020/12/31 00:17:41;;;;;;;17.92;13.15;;;3.90;99.90;;;;;;5028123;28;20052;-77
2020/12/31 00:20:09;;;;;;;19.80;14.68;;;3.90;99.90;;;;;;5029131;28;20021;-77
2020/12/31 00:22:35;;;;;;;18.33;13.07;;;3.90;99.90;;;;;;5028647;28;20040;-77
2020/12/31 00:25:00;;;;;;;20.20;13.90;;;3.90;99.90;;;;;;5025914;28;20037;-77
2020/12/31 00:27:26;;;;;;;18.48;12.95;;;4.00;99.90;;;;;;5028006;28;20025;-77
2020/12/31 00:29:51;;;;;;;18.83;14.80;;;4.00;99.90;;;;;;5028238;28;20029;-77
2020/12/31 00:32:17;;;;;;;16.88;12.75;;;4.00;99.90;;;;;;5026513;28;20026;-77
2020/12/31 00:34:42;;;;;;;18.42;14.00;;;4.00;99.90;;;;;;5027405;28;20179;-77
2020/12/31 00:37:08;;;;;;;15.30;12.73;;;4.00;99.90;;;;;;5040895;28;20025;-77
2020/12/31 00:39:34;;;;;;;19.30;13.57;;;3.90;99.90;;;;;;5026741;28;20127;-77
2020/12/31 00:41:59;;;;;;;18.17;13.48;;;4.00;99.90;;;;;;5028214;28;20492;-76
2020/12/31 00:44:25;;;;;;;20.80;13.73;;;3.90;99.90;;;;;;5026813;28;20112;-77
2020/12/31 00:46:51;;;;;;;18.05;14.27;;;3.90;99.90;;;;;;5027397;28;20388;-77
2020/12/31 00:49:16;;;;;;;17.15;13.18;;;3.90;99.90;;;;;;5028014;28;20040;-77
2020/12/31 00:51:42;;;;;;;17.15;13.68;;;4.00;99.90;;;;;;5044195;28;20048;-78
2020/12/31 00:54:07;;;;;;;15.35;12.73;;;3.90;99.90;;;;;;5037705;28;20057;-77
2020/12/31 00:56:33;;;;;;;18.55;14.20;;;3.90;99.90;;;;;;5028038;28;20022;-78
2020/12/31 00:58:58;;;;;;;18.38;14.90;;;4.00;99.90;;;;;;5043959;28;20583;-77
2020/12/31 01:01:24;;;;;;;15.55;13.73;;;3.90;99.90;;;;;;5027003;28;20601;-76
2020/12/31 01:03:49;;;;;;;16.90;14.13;;;4.00;99.90;;;;;;5028265;28;20033;-77
2020/12/31 01:06:15;;;;;;;17.73;14.93;;;4.00;99.90;;;;;;5029089;28;20038;-77
2020/12/31 01:08:41;;;;;;;20.17;14.43;;;4.00;99.90;;;;;;5025254;28;20448;-77
2020/12/31 01:11:07;;;;;;;15.90;14.05;;;4.00;99.90;;;;;;5029348;28;20032;-77
2020/12/31 01:13:32;;;;;;;18.48;13.57;;;4.00;99.90;;;;;;5026596;28;20088;-77
2020/12/31 01:15:58;;;;;;;15.50;13.20;;;4.00;99.90;;;;;;5027234;28;20036;-77
2020/12/31 01:18:24;;;;;;;17.27;14.23;;;4.00;99.90;;;;;;5025129;28;20052;-77
2020/12/31 01:20:49;;;;;;;19.08;13.77;;;4.00;99.90;;;;;;5040582;28;20116;-77
2020/12/31 01:23:15;;;;;;;17.63;12.43;;;4.00;99.90;;;;;;5043399;28;20030;-77
2020/12/31 01:25:41;;;;;;;17.10;12.10;;;4.00;99.90;;;;;;5027813;28;20022;-77
2020/12/31 01:28:06;;;;;;;14.88;11.55;;;4.00;99.90;;;;;;5039269;28;20037;-77
2020/12/31 01:30:32;;;;;;;13.48;11.43;;;4.00;99.90;;;;;;5022418;28;20026;-77
2020/12/31 01:32:58;;;;;;;13.95;10.77;;;4.00;99.90;;;;;;5026542;28;20021;-76
2020/12/31 01:35:23;;;;;;;14.02;9.95;;;4.00;99.90;;;;;;5026350;28;20087;-77
2020/12/31 01:37:49;;;;;;;13.38;8.98;;;4.00;99.90;;;;;;5026952;28;20604;-77
2020/12/31 01:40:15;;;;;;;13.05;8.70;;;4.00;99.90;;;;;;5031355;28;20041;-77
2020/12/31 01:42:45;;;;;;;10.60;7.68;;;4.00;99.90;;;;;;5046491;28;20368;-77
2020/12/31 01:45:11;;;;;;;9.98;7.40;;;4.00;99.90;;;;;;5031199;28;20047;-77
2020/12/31 01:47:36;;;;;;;8.25;7.00;;;4.00;99.90;;;;;;5029879;28;20025;-77
2020/12/31 01:50:03;;;;;;;11.55;7.88;;;4.00;99.90;;;;;;5031540;28;20022;-77
2020/12/31 01:52:30;;;;;;;10.05;8.07;;;4.00;99.90;;;;;;5030835;28;20021;-77
2020/12/31 01:54:57;;;;;;;10.25;7.22;;;4.00;99.90;;;;;;5023487;28;20033;-77
2020/12/31 01:57:23;;;;;;;13.05;7.75;;;3.90;99.90;;;;;;5030069;28;20021;-77
2020/12/31 01:59:50;;;;;;;9.68;8.68;;;3.90;99.90;;;;;;5025250;28;20033;-77
2020/12/31 02:02:15;;;;;;;10.73;8.82;;;3.90;99.90;;;;;;5025926;28;20033;-77
2020/12/31 02:04:42;;;;;;;10.63;8.30;;;3.90;99.90;;;;;;5027772;28;20018;-79
2020/12/31 02:07:07;;;;;;;13.00;9.65;;;3.80;99.90;;;;;;5031546;28;20069;-78
2020/12/31 02:09:33;;;;;;;13.07;10.48;;;3.90;99.90;;;;;;5029574;28;20747;-77
2020/12/31 02:12:03;;;;;;;13.23;11.82;;;3.80;99.90;;;;;;5030530;28;20033;-77
2020/12/31 02:14:29;;;;;;;19.92;12.38;;;3.80;99.90;;;;;;5045982;28;20104;-77
2020/12/31 02:16:55;;;;;;;17.00;11.98;;;3.90;99.90;;;;;;5029212;28;20064;-77
2020/12/31 02:19:20;;;;;;;17.15;12.50;;;3.80;99.90;;;;;;5030962;28;20080;-77
2020/12/31 02:21:47;;;;;;;19.05;13.40;;;3.80;99.90;;;;;;5039151;28;20036;-76
2020/12/31 02:24:13;;;;;;;22.05;14.05;;;3.90;99.90;;;;;;5031155;28;20056;-77
2020/12/31 02:26:40;;;;;;;18.27;12.88;;;3.90;99.90;;;;;;5045573;28;20028;-77
2020/12/31 02:29:07;;;;;;;19.17;13.27;;;3.90;99.90;;;;;;5033628;28;20037;-77
2020/12/31 02:31:34;;;;;;;19.98;12.40;;;3.90;99.90;;;;;;5030747;28;20468;-77
2020/12/31 02:34:00;;;;;;;15.35;11.85;;;3.80;99.90;;;;;;5031017;28;20033;-77
2020/12/31 02:36:28;;;;;;;13.95;11.68;;;3.80;99.90;;;;;;5028903;28;20396;-77
2020/12/31 02:38:55;;;;;;;15.63;11.90;;;3.80;99.90;;;;;;5029597;28;20632;-77
2020/12/31 02:41:21;;;;;;;20.83;13.65;;;3.80;99.90;;;;;;5029500;28;20029;-77
2020/12/31 02:43:47;;;;;;;21.17;14.52;;;3.80;99.90;;;;;;5029058;28;20029;-76
2020/12/31 02:46:14;;;;;;;20.38;14.27;;;3.80;99.90;;;;;;5028297;28;20025;-77
2020/12/31 02:48:41;;;;;;;22.35;15.43;;;3.80;99.90;;;;;;5042021;28;20507;-77
2020/12/31 02:51:07;;;;;;;19.15;14.20;;;3.80;99.90;;;;;;5035992;28;20032;-77
2020/12/31 02:53:33;;;;;;;20.38;15.90;;;3.70;99.90;;;;;;5028991;28;20044;-78
2020/12/31 02:56:00;;;;;;;22.55;15.65;;;3.70;99.90;;;;;;5028987;28;20030;-76
2020/12/31 02:58:25;;;;;;;23.33;16.83;;;3.70;99.90;;;;;;5029880;28;20091;-77
2020/12/31 03:00:51;;;;;;;24.58;16.70;;;3.60;99.90;;;;;;5028605;28;20061;-77
2020/12/31 03:03:17;;;;;;;22.92;16.20;;;3.60;99.90;;;;;;5030280;28;20101;-77
2020/12/31 03:05:42;;;;;;;23.88;16.08;;;3.70;99.90;;;;;;5029211;28;20117;-76
2020/12/31 03:08:08;;;;;;;24.88;17.52;;;3.70;99.90;;;;;;5045035;28;20041;-77
2020/12/31 03:10:34;;;;;;;21.75;15.65;;;3.60;99.90;;;;;;5029270;28;20032;-76
2020/12/31 03:12:59;;;;;;;24.50;17.25;;;3.70;99.90;;;;;;5028375;28;20022;-77
2020/12/31 03:15:25;;;;;;;30.13;16.65;;;3.60;99.90;;;;;;5029275;28;20480;-77
2020/12/31 03:17:50;;;;;;;25.40;17.33;;;3.60;99.90;;;;;;5045070;28;20533;-77
2020/12/31 03:20:16;;;;;;;22.17;16.35;;;3.60;99.90;;;;;;5028025;28;20057;-78
2020/12/31 03:22:42;;;;;;;20.35;15.05;;;3.60;99.90;;;;;;5029445;28;20080;-77
2020/12/31 03:25:08;;;;;;;22.13;15.77;;;3.60;99.90;;;;;;5043365;28;20117;-77
2020/12/31 03:27:34;;;;;;;26.48;17.63;;;3.60;99.90;;;;;;5024884;28;20045;-76
2020/12/31 03:30:00;;;;;;;22.17;16.30;;;3.50;99.90;;;;;;5027766;28;20473;-76
2020/12/31 03:32:25;;;;;;;24.38;16.55;;;3.50;99.90;;;;;;5027657;28;20021;-77
2020/12/31 03:34:51;;;;;;;24.67;17.42;;;3.50;99.90;;;;;;5026372;28;20072;-77
2020/12/31 03:37:17;;;;;;;24.33;17.25;;;3.50;99.90;;;;;;5027793;28;20036;-77
2020/12/31 03:39:43;;;;;;;28.83;18.60;;;3.50;99.90;;;;;;5026603;28;20049;-77
2020/12/31 03:42:09;;;;;;;27.48;17.98;;;3.50;99.90;;;;;;5027955;28;20060;-76
2020/12/31 03:44:35;;;;;;;26.30;18.98;;;3.50;99.90;;;;;;5028855;28;20049;-78
2020/12/31 03:47:01;;;;;;;28.15;19.55;;;3.50;99.90;;;;;;5028734;28;20021;-77
2020/12/31 03:49:27;;;;;;;27.33;19.00;;;3.40;99.90;;;;;;5027971;28;20022;-77
2020/12/31 03:51:52;;;;;;;28.55;19.38;;;3.40;99.90;;;;;;5029922;28;20096;-77
2020/12/31 03:54:18;;;;;;;28.63;19.30;;;3.40;99.90;;;;;;5030662;28;20018;-78
2020/12/31 03:56:43;;;;;;;27.50;18.67;;;3.30;99.90;;;;;;5030574;28;20056;-78
2020/12/31 03:59:09;;;;;;;28.13;19.10;;;3.30;99.90;;;;;;5030801;28;20030;-78
2020/12/31 04:01:35;;;;;;;31.00;19.50;;;3.30;99.90;;;;;;5029569;28;20036;-78
2020/12/31 04:04:01;;;;;;;32.45;20.23;;;3.30;99.90;;;;;;5029854;28;20175;-78
2020/12/31 04:06:29;;;;;;;31.20;20.48;;;3.30;99.90;;;;;;5044706;28;20029;-76
2020/12/31 04:08:55;;;;;;;23.40;16.70;;;3.20;99.90;;;;;;5043137;28;20157;-77
2020/12/31 04:11:20;;;;;;;30.63;19.35;;;3.20;99.90;;;;;;5029420;28;20372;-76
2020/12/31 04:13:46;;;;;;;29.77;20.08;;;3.20;99.90;;;;;;5027809;28;20045;-78
2020/12/31 04:16:12;;;;;;;30.85;19.45;;;3.20;99.90;;;;;;5027011;28;20044;-77
2020/12/31 04:18:37;;;;;;;31.42;21.20;;;3.20;99.90;;;;;;5027476;28;20033;-76
2020/12/31 04:21:03;;;;;;;30.08;20.17;;;3.20;99.90;;;;;;5028419;28;20443;-76
2020/12/31 04:23:29;;;;;;;29.23;19.83;;;3.10;99.90;;;;;;5027651;28;20030;-76
2020/12/31 04:25:55;;;;;;;29.35;20.55;;;3.10;99.90;;;;;;5028479;28;20036;-77
2020/12/31 04:28:21;;;;;;;30.63;21.73;;;3.10;99.90;;;;;;5029115;28;20017;-76
2020/12/31 04:30:48;;;;;;;28.77;20.63;;;3.10;99.90;;;;;;5026477;28;20492;-76
2020/12/31 04:33:14;;;;;;;31.52;21.05;;;3.10;99.90;;;;;;5028702;28;20038;-76
2020/12/31 04:35:39;;;;;;;31.00;20.48;;;3.10;99.90;;;;;;5027110;28;20443;-76
2020/12/31 04:38:05;;;;;;;32.85;22.08;;;3.10;99.90;;;;;;5027432;28;20025;-76
2020/12/31 04:40:32;;;;;;;30.38;19.58;;;3.10;99.90;;;;;;5027346;28;20032;-76
2020/12/31 04:42:58;;;;;;;30.17;20.70;;;3.20;99.90;;;;;;5027419;28;20021;-77
2020/12/31 04:45:25;;;;;;;36.33;22.60;;;3.20;99.90;;;;;;5027031;28;20168;-77
2020/12/31 04:47:53;;;;;;;29.55;21.02;;;3.10;99.90;;;;;;5028825;28;20167;-76
2020/12/31 04:50:21;;;;;;;29.63;21.25;;;3.10;99.90;;;;;;5041136;28;20068;-76
2020/12/31 04:52:48;;;;;;;29.95;20.67;;;3.10;99.90;;;;;;5028534;28;20049;-77
2020/12/31 04:55:13;;;;;;;29.75;20.90;;;3.10;99.90;;;;;;5043840;28;20420;-76
2020/12/31 04:57:39;;;;;;;31.45;19.80;;;3.10;99.90;;;;;;5027325;28;20025;-77
2020/12/31 05:00:05;;;;;;;31.55;20.95;;;3.10;99.90;;;;;;5028758;28;20034;-77
2020/12/31 05:02:30;;;;;;;33.55;20.70;;;3.10;99.90;;;;;;5044120;28;20116;-77
2020/12/31 05:05:00;;;;;;;30.63;19.58;;;3.10;99.90;;;;;;5026663;28;20022;-77
2020/12/31 05:07:26;;;;;;;33.05;20.05;;;3.10;99.90;;;;;;5043833;28;20541;-77
2020/12/31 05:10:12;;;;;;;28.83;19.63;;;3.10;99.90;;;;;;5026983;28;20021;-77
2020/12/31 05:12:38;;;;;;;32.35;21.63;;;3.10;99.90;;;;;;5027289;28;20061;-77
2020/12/31 05:15:04;;;;;;;29.60;20.08;;;3.10;99.90;;;;;;5030757;28;20056;-76
2020/12/31 05:17:30;;;;;;;28.65;19.00;;;3.10;99.90;;;;;;5031176;28;20492;-76
2020/12/31 05:19:55;;;;;;;34.00;21.58;;;3.10;99.90;;;;;;5047644;28;20029;-77
2020/12/31 05:22:21;;;;;;;36.05;22.17;;;3.10;99.90;;;;;;5047537;28;20036;-77
2020/12/31 05:24:49;;;;;;;33.45;20.25;;;3.00;99.90;;;;;;5032102;28;20477;-77
2020/12/31 05:27:19;;;;;;;30.10;20.13;;;3.00;99.90;;;;;;5032329;28;20056;-76
2020/12/31 05:30:11;;;;;;;34.33;21.25;;;3.10;99.90;;;;;;5032544;28;20376;-77
2020/12/31 05:32:40;;;;;;;29.10;19.42;;;3.10;99.90;;;;;;5029949;28;20037;-77
2020/12/31 05:35:16;;;;;;;34.15;21.40;;;3.10;99.90;;;;;;5044760;28;20040;-77
2020/12/31 05:37:42;;;;;;;31.98;21.65;;;3.10;99.90;;;;;;5032421;28;20052;-76
2020/12/31 05:40:12;;;;;;;30.42;21.40;;;3.00;99.90;;;;;;5032308;28;20068;-77
2020/12/31 05:42:40;;;;;;;29.00;20.38;;;3.10;99.90;;;;;;5028973;28;20083;-77
2020/12/31 05:45:13;;;;;;;30.60;20.42;;;3.00;99.90;;;;;;5047308;28;20039;-77
2020/12/31 05:47:51;;;;;;;31.08;20.80;;;3.00;99.90;;;;;;5030467;28;20028;-77
2020/12/31 05:50:28;;;;;;;34.88;23.02;;;3.10;99.90;;;;;;5030247;28;20021;-76
2020/12/31 05:52:54;;;;;;;;;;;3.00;99.90;;;;;;5032029;28;20032;-77
2020/12/31 05:55:24;;;;;;;31.27;21.03;;;3.00;99.90;;;;;;5030284;28;19909;-77
2020/12/31 05:57:57;;;;;;;29.73;19.98;;;3.00;99.90;;;;;;5029063;28;20767;-76
2020/12/31 06:00:27;;;;;;;30.58;21.17;;;3.00;99.90;;;;;;5031810;28;20091;-77
2020/12/31 06:02:59;;;;;;;31.13;20.70;;;3.10;99.90;;;;;;5031861;28;20100;-77
2020/12/31 06:05:25;;;;;;;35.33;22.13;;;3.10;99.90;;;;;;5029389;28;20505;-76
2020/12/31 06:07:53;;;;;;;32.60;21.05;;;3.10;99.90;;;;;;5030541;28;20485;-76
2020/12/31 06:10:22;;;;;;;32.35;21.50;;;3.10;99.90;;;;;;5031314;28;20021;-77
2020/12/31 06:13:04;;;;;;;32.80;21.27;;;3.10;99.90;;;;;;5044625;28;20045;-77
2020/12/31 06:15:32;;;;;;;35.53;21.73;;;3.00;99.90;;;;;;5029622;28;20109;-77
2020/12/31 06:18:01;;;;;;;34.40;22.10;;;3.10;99.90;;;;;;5046685;28;20025;-76
2020/12/31 06:20:28;;;;;;;33.60;20.05;;;3.00;99.90;;;;;;5025017;28;20037;-77
2020/12/31 06:23:15;;;;;;;31.48;20.23;;;3.00;99.90;;;;;;5031334;28;20467;-77
2020/12/31 06:25:44;;;;;;;;;;;3.10;99.90;;;;;;5030112;28;20021;-76
2020/12/31 06:28:18;;;;;;;32.92;19.50;;;3.10;99.90;;;;;;5030110;28;19916;-76
2020/12/31 06:30:46;;;;;;;30.92;20.17;;;3.00;99.90;;;;;;5027296;28;20700;-76
2020/12/31 06:33:20;;;;;;;29.65;19.05;;;3.00;99.90;;;;;;5031271;28;20536;-77
2020/12/31 06:35:49;;;;;;;30.73;20.60;;;3.10;99.90;;;;;;5025123;28;20040;-77
2020/12/31 06:38:26;;;;;;;32.03;19.95;;;3.00;99.90;;;;;;5031150;28;20025;-77
2020/12/31 06:40:51;;;;;;;;;;;3.00;99.90;;;;;;5030247;28;20021;-76
2020/12/31 06:43:17;;;;;;;31.87;19.53;;;3.00;99.90;;;;;;5031196;28;20501;-77
2020/12/31 06:45:48;;;;;;;31.15;20.08;;;3.00;99.90;;;;;;5028601;28;20059;-77
2020/12/31 06:48:25;;;;;;;31.60;20.30;;;3.00;99.90;;;;;;5046075;28;20024;-77
2020/12/31 06:51:03;;;;;;;32.55;20.13;;;2.90;99.90;;;;;;5042946;28;20105;-76
2020/12/31 06:53:33;;;;;;;30.55;20.35;;;2.90;99.90;;;;;;5029697;28;20652;-77
2020/12/31 06:56:01;;;;;;;28.73;20.60;;;2.90;99.90;;;;;;5030387;28;20537;-76
2020/12/31 06:58:27;;;;;;;34.25;21.15;;;2.90;99.90;;;;;;5029203;28;20025;-77
2020/12/31 07:00:54;;;;;;;30.42;19.70;;;2.90;99.90;;;;;;5040395;28;20132;-77
2020/12/31 07:03:42;;;;;;;32.03;20.45;;;2.90;99.90;;;;;;5029573;28;20023;-77
2020/12/31 07:06:20;;;;;;;30.95;18.75;;;2.90;99.90;;;;;;5020991;28;20038;-76
2020/12/31 07:08:51;;;;;;;35.58;20.08;;;2.90;99.90;;;;;;5011123;28;20030;-77
2020/12/31 07:11:37;;;;;;;27.30;18.58;;;2.90;99.90;;;;;;5046024;28;20057;-77
2020/12/31 07:14:18;;;;;;;31.50;21.02;;;2.90;99.90;;;;;;5029323;28;20017;-77
2020/12/31 07:16:55;;;;;;;33.35;20.73;;;2.90;99.90;;;;;;5030442;28;20195;-77
2020/12/31 07:19:40;;;;;;;30.92;19.10;;;2.90;99.90;;;;;;5027666;28;20029;-76
2020/12/31 07:22:18;;;;;;;32.88;19.42;;;2.80;99.90;;;;;;5027238;28;20831;-77
2020/12/31 07:24:48;;;;;;;30.27;20.42;;;2.80;99.90;;;;;;5046056;28;20028;-77
2020/12/31 07:27:20;;;;;;;32.53;19.77;;;2.80;99.90;;;;;;5030799;28;20013;-76
2020/12/31 07:30:01;;;;;;;29.70;19.73;;;2.80;99.90;;;;;;5029480;28;20112;-77
2020/12/31 07:32:55;;;;;;;28.85;19.23;;;2.80;99.90;;;;;;5031038;28;20045;-77
2020/12/31 07:35:31;;;;;;;26.30;17.92;;;2.80;99.90;;;;;;5045754;28;20066;-77
2020/12/31 07:38:25;;;;;;;33.72;19.23;;;2.80;99.90;;;;;;5029969;28;20155;-77
2020/12/31 07:40:51;;;;;;;30.77;18.98;;;2.80;99.90;;;;;;5028101;28;20029;-77
2020/12/31 07:43:21;;;;;;;27.33;18.67;;;2.80;99.90;;;;;;5029915;28;20029;-78
2020/12/31 07:45:55;;;;;;;28.48;18.42;;;2.80;99.90;;;;;;5033579;28;20026;-77
2020/12/31 07:48:22;;;;;;;29.98;19.52;;;2.80;99.90;;;;;;5022933;28;20744;-77
2020/12/31 07:51:02;;;;;;;26.83;17.48;;;2.80;99.90;;;;;;5033268;28;20018;-77
2020/12/31 07:53:29;;;;;;;29.48;18.83;;;2.80;99.90;;;;;;5031134;28;20045;-77
2020/12/31 07:55:55;;;;;;;24.95;16.38;;;2.80;99.90;;;;;;5030118;28;20021;-79
2020/12/31 07:58:23;;;;;;;26.52;16.95;;;2.80;99.90;;;;;;5048530;28;20040;-78
2020/12/31 08:01:22;;;;;;;24.13;15.80;;;2.80;99.90;;;;;;5031926;28;20079;-77
2020/12/31 08:03:47;;;;;;;24.85;16.42;;;2.80;99.90;;;;;;5029377;28;20069;-78
2020/12/31 08:06:13;;;;;;;24.17;15.98;;;2.80;99.90;;;;;;5029626;28;20109;-78
2020/12/31 08:08:41;;;;;;;24.10;15.45;;;2.90;99.90;;;;;;5031751;28;20026;-78
2020/12/31 08:11:08;;;;;;;25.27;17.13;;;2.90;99.90;;;;;;5030186;28;20017;-78
2020/12/31 08:13:33;;;;;;;25.92;16.63;;;2.90;99.90;;;;;;5035755;28;20045;-77
2020/12/31 08:15:59;;;;;;;27.42;15.90;;;2.90;99.90;;;;;;5029184;28;20033;-77
2020/12/31 08:18:26;;;;;;;26.25;16.20;;;2.90;99.90;;;;;;5027880;28;20395;-77
2020/12/31 08:20:53;;;;;;;24.77;15.93;;;2.90;99.90;;;;;;5029987;28;20021;-78
2020/12/31 08:23:25;;;;;;;23.58;14.27;;;2.90;99.90;;;;;;5034308;28;20029;-78
2020/12/31 08:25:54;;;;;;;19.55;13.80;;;2.90;99.90;;;;;;5023299;28;20036;-77
2020/12/31 08:28:21;;;;;;;21.10;14.35;;;2.90;99.90;;;;;;5029576;28;20801;-77
2020/12/31 08:30:47;;;;;;;21.15;13.98;;;3.00;99.90;;;;;;5028477;28;20388;-77
2020/12/31 08:33:13;;;;;;;21.55;14.02;;;2.90;99.90;;;;;;5028411;28;20022;-77
2020/12/31 08:35:41;;;;;;;22.00;14.65;;;2.90;99.90;;;;;;5030366;28;20112;-77
2020/12/31 08:38:14;;;;;;;19.15;12.90;;;3.00;99.90;;;;;;5023605;28;20036;-77
2020/12/31 08:40:43;;;;;;;18.40;13.73;;;3.00;99.90;;;;;;5027615;28;20025;-77
2020/12/31 08:43:36;;;;;;;20.77;12.95;;;3.10;99.90;;;;;;5028057;28;20400;-78
2020/12/31 08:46:05;;;;;;;23.42;12.80;;;3.00;99.90;;;;;;5029428;28;20048;-76
2020/12/31 08:48:32;;;;;;;20.08;12.88;;;3.10;99.90;;;;;;5030439;28;20029;-77
2020/12/31 08:51:18;;;;;;;19.10;12.80;;;3.10;99.90;;;;;;5029766;28;20112;-77
2020/12/31 08:54:02;;;;;;;20.73;12.70;;;3.10;99.90;;;;;;5027882;28;20117;-77
2020/12/31 08:56:30;;;;;;;17.33;12.50;;;3.10;99.90;;;;;;5026198;28;20025;-77
2020/12/31 08:59:16;;;;;;;18.42;12.93;;;3.10;99.90;;;;;;5029077;28;20060;-77
2020/12/31 09:01:43;;;;;;;16.95;11.48;;;3.20;99.90;;;;;;5020869;28;20033;-77
2020/12/31 09:04:14;;;;;;;17.45;13.15;;;3.10;99.90;;;;;;5028986;28;20710;-77
2020/12/31 09:06:44;;;;;;;15.82;11.40;;;3.10;99.90;;;;;;5019008;28;20029;-77
2020/12/31 09:09:18;;;;;;;17.88;11.80;;;3.10;99.90;;;;;;5035107;28;20476;-77
2020/12/31 09:11:58;;;;;;;15.65;11.73;;;3.10;99.90;;;;;;5030771;28;20075;-77
2020/12/31 09:14:25;;;;;;;15.48;11.70;;;3.20;99.90;;;;;;5027351;28;20025;-76
2020/12/31 09:16:51;;;;;;;14.40;10.77;;;3.20;99.90;;;;;;5028052;28;20074;-77
2020/12/31 09:19:16;;;;;;;14.35;11.63;;;3.20;99.90;;;;;;5028067;28;20045;-78
2020/12/31 09:21:42;;;;;;;14.00;10.73;;;3.20;99.90;;;;;;5028029;28;20091;-77
2020/12/31 09:24:21;;;;;;;14.50;10.75;;;3.20;99.90;;;;;;5027641;28;20128;-77
2020/12/31 09:26:58;;;;;;;14.93;10.48;;;3.20;99.90;;;;;;5026422;28;20395;-77
2020/12/31 09:29:24;;;;;;;;;;;3.20;99.90;;;;;;5028491;28;20025;-77
2020/12/31 09:31:50;;;;;;;13.27;9.55;;;3.20;99.90;;;;;;5028689;28;19909;-77
2020/12/31 09:34:16;;;;;;;12.77;9.70;;;3.30;99.90;;;;;;5027605;28;20041;-78
2020/12/31 09:36:42;;;;;;;14.05;10.32;;;3.20;99.90;;;;;;5028755;28;20037;-76
2020/12/31 09:39:08;;;;;;;16.67;10.73;;;3.20;99.90;;;;;;5043781;28;20021;-77
2020/12/31 09:41:34;;;;;;;14.70;10.02;;;3.20;99.90;;;;;;5029783;28;20025;-77
2020/12/31 09:44:00;;;;;;;16.05;10.23;;;3.20;99.90;;;;;;5027872;28;20033;-77
2020/12/31 09:46:26;;;;;;;14.68;10.38;;;3.30;99.90;;;;;;5026465;28;20105;-78
2020/12/31 09:48:52;;;;;;;14.35;9.82;;;3.20;99.90;;;;;;5028550;28;20049;-78
2020/12/31 09:51:20;;;;;;;14.32;10.60;;;3.20;99.90;;;;;;5029091;28;20369;-77
2020/12/31 09:53:47;;;;;;;11.80;9.10;;;3.30;99.90;;;;;;5027412;28;20535;-78
2020/12/31 09:56:13;;;;;;;15.23;10.38;;;3.30;99.90;;;;;;5028027;28;20545;-77
2020/12/31 09:58:42;;;;;;;12.75;9.52;;;3.30;99.90;;;;;;5045222;28;20104;-78
2020/12/31 10:01:07;;;;;;;11.10;9.88;;;3.30;99.90;;;;;;5029990;28;20033;-77
2020/12/31 10:03:33;;;;;;;13.25;9.73;;;3.30;99.90;;;;;;5031973;28;20060;-78
2020/12/31 10:05:59;;;;;;;13.35;9.32;;;3.30;99.90;;;;;;5030751;28;20036;-78
2020/12/31 10:08:24;;;;;;;14.20;9.30;;;3.30;99.90;;;;;;5031265;28;20480;-78
2020/12/31 10:10:50;;;;;;;13.32;9.50;;;3.20;99.90;;;;;;5033540;28;20026;-76
2020/12/31 10:13:16;;;;;;;11.98;9.13;;;3.30;99.90;;;;;;5031199;28;20553;-77
2020/12/31 10:15:41;;;;;;;10.30;8.40;;;3.30;99.90;;;;;;5030356;28;20136;-78
2020/12/31 10:18:07;;;;;;;10.40;8.32;;;3.30;99.90;;;;;;5031472;28;20596;-77
2020/12/31 10:20:33;;;;;;;10.73;8.00;;;3.30;99.90;;;;;;5032226;28;20041;-78
2020/12/31 10:22:58;;;;;;;8.70;7.40;;;3.30;99.90;;;;;;5030392;28;20030;-77
2020/12/31 10:25:24;;;;;;;8.63;7.72;;;3.30;99.90;;;;;;5030952;28;20037;-78
2020/12/31 10:27:50;;;;;;;10.35;8.18;;;3.30;99.90;;;;;;5031935;28;20044;-77
2020/12/31 10:30:16;;;;;;;10.63;8.02;;;3.30;99.90;;;;;;5030275;28;20029;-77
2020/12/31 10:32:41;;;;;;;11.88;8.32;;;3.30;99.90;;;;;;5031719;28;20025;-78
2020/12/31 10:35:07;;;;;;;12.05;8.98;;;3.30;99.90;;;;;;5036292;28;20037;-78
2020/12/31 10:37:32;;;;;;;9.75;8.20;;;3.30;99.90;;;;;;5036182;28;20029;-77
2020/12/31 10:39:58;;;;;;;10.07;8.27;;;3.30;99.90;;;;;;5035177;28;20021;-78
2020/12/31 10:42:23;;;;;;;12.90;9.27;;;3.30;99.90;;;;;;5040810;28;20523;-78
2020/12/31 10:44:49;;;;;;;9.88;8.07;;;3.20;99.90;;;;;;5041201;28;20105;-78
2020/12/31 10:47:15;;;;;;;12.75;8.48;;;3.20;99.90;;;;;;5035215;28;20026;-77
2020/12/31 10:49:40;;;;;;;9.23;7.72;;;3.30;99.90;;;;;;5037861;28;20120;-78
2020/12/31 10:52:06;;;;;;;13.15;8.82;;;3.20;99.90;;;;;;5031498;28;20045;-78
2020/12/31 10:54:32;;;;;;;9.70;8.00;;;3.30;99.90;;;;;;5034481;28;20013;-78
2020/12/31 10:56:57;;;;;;;12.77;9.13;;;3.30;99.90;;;;;;5033579;28;20014;-79
2020/12/31 10:59:24;;;;;;;9.82;8.30;;;3.30;99.90;;;;;;5035503;28;20135;-77
2020/12/31 11:01:53;;;;;;;10.20;8.63;;;3.30;99.90;;;;;;5034167;28;20017;-78
2020/12/31 11:04:20;;;;;;;12.13;9.38;;;3.30;99.90;;;;;;5036367;28;20029;-78
2020/12/31 11:06:46;;;;;;;12.20;8.88;;;3.30;99.90;;;;;;5035274;28;20531;-77
2020/12/31 11:09:12;;;;;;;10.95;9.20;;;3.30;99.90;;;;;;5035278;28;20032;-77
2020/12/31 11:11:39;;;;;;;13.57;9.73;;;3.30;99.90;;;;;;5034373;28;20021;-78
2020/12/31 11:14:05;;;;;;;11.07;8.85;;;3.30;99.90;;;;;;5035390;28;20041;-77
2020/12/31 11:16:31;;;;;;;10.63;8.73;;;3.30;99.90;;;;;;5033837;28;20091;-76
2020/12/31 11:18:56;;;;;;;11.68;9.30;;;3.30;99.90;;;;;;5035074;28;20014;-77
2020/12/31 11:21:23;;;;;;;10.52;8.85;;;3.40;99.90;;;;;;5033385;28;20033;-77
2020/12/31 11:23:49;;;;;;;9.85;7.82;;;3.40;99.90;;;;;;5036342;28;20020;-78
2020/12/31 11:26:16;;;;;;;9.23;7.80;;;3.40;99.90;;;;;;5033647;28;20411;-77
2020/12/31 11:28:42;;;;;;;10.10;7.43;;;3.40;99.90;;;;;;5035335;28;20024;-77
2020/12/31 11:31:09;;;;;;;10.10;8.45;;;3.40;99.90;;;;;;5038189;28;20030;-78
2020/12/31 11:33:36;;;;;;;8.85;7.30;;;3.40;99.90;;;;;;5034041;28;20025;-76
2020/12/31 11:36:05;;;;;;;8.70;7.07;;;3.40;99.90;;;;;;5032767;28;20033;-77
2020/12/31 11:38:31;;;;;;;9.15;7.43;;;3.40;99.90;;;;;;5041909;28;20022;-78
2020/12/31 11:40:56;;;;;;;7.85;6.70;;;3.50;99.90;;;;;;5031080;28;20029;-78
2020/12/31 11:43:22;;;;;;;11.43;7.95;;;3.40;99.90;;;;;;5032015;28;20026;-78
2020/12/31 11:45:48;;;;;;;9.20;7.78;;;3.40;99.90;;;;;;5034858;28;20120;-77
2020/12/31 11:48:13;;;;;;;9.23;7.28;;;3.40;99.90;;;;;;5036874;28;20026;-78
2020/12/31 11:50:39;;;;;;;9.35;7.30;;;3.40;99.90;;;;;;5033655;28;20033;-78
2020/12/31 11:53:04;;;;;;;9.45;7.22;;;3.40;99.90;;;;;;5035957;28;20037;-78
2020/12/31 11:55:30;;;;;;;8.82;7.13;;;3.50;99.90;;;;;;5036069;28;20025;-78
2020/12/31 11:57:56;;;;;;;10.52;7.35;;;3.40;99.90;;;;;;5034690;28;20025;-79
2020/12/31 12:00:21;;;;;;;8.82;7.28;;;3.50;99.90;;;;;;5034297;28;20036;-79
2020/12/31 12:02:47;;;;;;;8.95;7.20;;;3.50;99.90;;;;;;5036204;28;20029;-79
2020/12/31 12:05:13;;;;;;;10.32;7.22;;;3.40;99.90;;;;;;5036085;28;20053;-79
2020/12/31 12:07:38;;;;;;;8.77;7.45;;;3.40;99.90;;;;;;5034973;28;20488;-77
2020/12/31 12:10:04;;;;;;;9.90;7.47;;;3.40;99.90;;;;;;5035140;28;20590;-79
2020/12/31 12:12:30;;;;;;;8.70;7.30;;;3.40;99.90;;;;;;5039148;28;20086;-79
2020/12/31 12:14:56;;;;;;;8.98;6.75;;;3.40;99.90;;;;;;5038370;28;20025;-80
2020/12/31 12:17:21;;;;;;;9.70;7.45;;;3.40;99.90;;;;;;5036480;28;20188;-80
2020/12/31 12:19:47;;;;;;;10.10;6.72;;;3.40;99.90;;;;;;5037644;28;20072;-78
2020/12/31 12:22:12;;;;;;;8.10;6.78;;;3.40;99.90;;;;;;5029778;28;20032;-77
2020/12/31 12:24:38;;;;;;;10.13;7.45;;;3.40;99.90;;;;;;5032846;28;20151;-79
2020/12/31 12:27:06;;;;;;;10.90;8.23;;;3.40;99.90;;;;;;5030401;28;20029;-77
2020/12/31 12:29:32;;;;;;;10.40;8.13;;;3.40;99.90;;;;;;5036285;28;20029;-79
2020/12/31 12:31:57;;;;;;;8.63;6.93;;;3.40;99.90;;;;;;5034299;28;20021;-78
2020/12/31 12:34:23;;;;;;;9.45;7.20;;;3.40;99.90;;;;;;5034578;28;20915;-78
2020/12/31 12:36:50;;;;;;;8.40;6.70;;;3.40;99.90;;;;;;5033396;28;20471;-79
2020/12/31 12:39:16;;;;;;;10.73;7.60;;;3.30;99.90;;;;;;5033074;28;20079;-77
2020/12/31 12:41:42;;;;;;;9.40;7.72;;;3.30;99.90;;;;;;5034916;28;20016;-79
2020/12/31 12:44:07;;;;;;;15.35;12.52;;;3.30;99.90;;;;;;5033702;28;20028;-79
2020/12/31 12:46:33;;;;;;;11.15;8.75;;;3.30;99.90;;;;;;5032585;28;20584;-78